Terminal Aerodrome Forecast
Issued by NWS

Home | Current Version | Previous Version | Graphics & Text | Print | Product List | Glossary Off
Versions: 1 2 3 4 5 6 7 8 9 10 11 12 13

000
FTUS43 KDDC 262320
TAFHYS
TAF
KHYS 262320Z 2700/2724 08006KT P6SM SCT025 BKN040
     FM270600 11006KT P6SM VCTS BKN040CB
      TEMPO 2708/2711 4SM -TSRA OVC020CB
     FM271400 13004KT P6SM SCT100=

USA.gov is the U.S. government's official web portal to all federal, state and local government web resources and services.